フィレンツェ の空港の天気 - METARとTAF

フィレンツェ・ペレトラ空港 ( LIRQ / FLR ) - イタリア フィレンツェ
飛行場実況気象(Metar)
観測時間01/22 10:50 CET (01/22 09:50 UTC)
風向・風速不定 2m/s
視程10km以上
天気現象
少しの雲 雲底高度 1830m
気温10℃
湿度46%
気圧1025hPa
METARLIRQ 220950Z VRB03KT 9999 FEW060 10/M01 Q1025
過去の天気等 Google飛行場航空写真 Wunderground天気予報

過去48時間のMETAR

飛行場予報(TAF)
発表時間: 1/22 06:00 CET (1/22 05:00 UTC)
予報対象時間: 22日7時 CET ~ 23日7時 CET
風向・風速北東 4m/s
視程10km以上
なし
22日19時 CET ~ 23日7時 CET に一時的に
天気現象
TAF LIRQ 220500Z 2206/2306 04008KT CAVOK
TEMPO 2218/2306 RA